sensor_id;sensor_type;location;lat;lon;timestamp;P1;durP1;ratioP1;P2;durP2;ratioP2
54171;SDS011;40076;52.354;4.970;2023-08-07T00:01:42;14.68;;;2.72;;
54171;SDS011;40076;52.354;4.970;2023-08-07T00:04:07;11.45;;;3.15;;
54171;SDS011;40076;52.354;4.970;2023-08-07T00:06:33;9.82;;;2.92;;
54171;SDS011;40076;52.354;4.970;2023-08-07T00:08:58;11.55;;;2.88;;
54171;SDS011;40076;52.354;4.970;2023-08-07T00:11:23;10.20;;;2.47;;
54171;SDS011;40076;52.354;4.970;2023-08-07T00:13:49;11.00;;;3.42;;
54171;SDS011;40076;52.354;4.970;2023-08-07T00:16:14;16.70;;;3.33;;
54171;SDS011;40076;52.354;4.970;2023-08-07T00:18:39;13.57;;;2.92;;
54171;SDS011;40076;52.354;4.970;2023-08-07T00:21:05;15.05;;;3.80;;
54171;SDS011;40076;52.354;4.970;2023-08-07T00:23:30;16.33;;;4.00;;
54171;SDS011;40076;52.354;4.970;2023-08-07T00:25:56;15.35;;;3.00;;
54171;SDS011;40076;52.354;4.970;2023-08-07T00:28:21;12.55;;;2.72;;
54171;SDS011;40076;52.354;4.970;2023-08-07T00:30:46;13.75;;;2.90;;
54171;SDS011;40076;52.354;4.970;2023-08-07T00:33:11;15.50;;;3.20;;
54171;SDS011;40076;52.354;4.970;2023-08-07T00:35:37;18.08;;;3.05;;
54171;SDS011;40076;52.354;4.970;2023-08-07T00:38:02;14.25;;;3.45;;
54171;SDS011;40076;52.354;4.970;2023-08-07T00:40:28;11.38;;;2.75;;
54171;SDS011;40076;52.354;4.970;2023-08-07T00:43:00;15.93;;;3.33;;
54171;SDS011;40076;52.354;4.970;2023-08-07T00:45:26;13.05;;;2.58;;
54171;SDS011;40076;52.354;4.970;2023-08-07T00:47:51;13.35;;;2.65;;
54171;SDS011;40076;52.354;4.970;2023-08-07T00:50:16;9.75;;;2.40;;
54171;SDS011;40076;52.354;4.970;2023-08-07T00:52:42;15.68;;;3.25;;
54171;SDS011;40076;52.354;4.970;2023-08-07T00:55:07;13.88;;;2.50;;
54171;SDS011;40076;52.354;4.970;2023-08-07T00:57:33;15.48;;;3.00;;
54171;SDS011;40076;52.354;4.970;2023-08-07T00:59:58;14.30;;;2.80;;
54171;SDS011;40076;52.354;4.970;2023-08-07T01:05:45;10.32;;;2.55;;
54171;SDS011;40076;52.354;4.970;2023-08-07T01:08:22;15.38;;;2.70;;
54171;SDS011;40076;52.354;4.970;2023-08-07T01:13:55;12.07;;;2.38;;
54171;SDS011;40076;52.354;4.970;2023-08-07T01:16:37;9.88;;;2.40;;
54171;SDS011;40076;52.354;4.970;2023-08-07T01:19:13;12.40;;;2.40;;
54171;SDS011;40076;52.354;4.970;2023-08-07T01:22:03;12.93;;;2.60;;
54171;SDS011;40076;52.354;4.970;2023-08-07T01:24:32;12.23;;;2.08;;
54171;SDS011;40076;52.354;4.970;2023-08-07T01:26:57;12.57;;;2.08;;
54171;SDS011;40076;52.354;4.970;2023-08-07T01:29:51;11.80;;;2.38;;
54171;SDS011;40076;52.354;4.970;2023-08-07T01:35:05;14.20;;;2.50;;
54171;SDS011;40076;52.354;4.970;2023-08-07T01:37:34;13.05;;;3.00;;
54171;SDS011;40076;52.354;4.970;2023-08-07T01:40:04;13.70;;;2.50;;
54171;SDS011;40076;52.354;4.970;2023-08-07T01:42:32;16.50;;;2.50;;
54171;SDS011;40076;52.354;4.970;2023-08-07T01:44:59;16.42;;;2.90;;
54171;SDS011;40076;52.354;4.970;2023-08-07T01:47:24;17.27;;;3.10;;
54171;SDS011;40076;52.354;4.970;2023-08-07T01:49:49;14.25;;;2.45;;
54171;SDS011;40076;52.354;4.970;2023-08-07T01:52:15;10.68;;;2.17;;
54171;SDS011;40076;52.354;4.970;2023-08-07T01:54:40;15.95;;;3.10;;
54171;SDS011;40076;52.354;4.970;2023-08-07T01:57:06;17.20;;;3.20;;
54171;SDS011;40076;52.354;4.970;2023-08-07T01:59:31;20.67;;;3.20;;
54171;SDS011;40076;52.354;4.970;2023-08-07T02:01:56;10.43;;;2.67;;
54171;SDS011;40076;52.354;4.970;2023-08-07T02:04:21;8.68;;;2.88;;
54171;SDS011;40076;52.354;4.970;2023-08-07T02:06:47;14.15;;;3.25;;
54171;SDS011;40076;52.354;4.970;2023-08-07T02:09:12;11.20;;;2.53;;
54171;SDS011;40076;52.354;4.970;2023-08-07T02:11:37;13.00;;;2.83;;
54171;SDS011;40076;52.354;4.970;2023-08-07T02:14:03;10.23;;;2.55;;
54171;SDS011;40076;52.354;4.970;2023-08-07T02:16:28;11.32;;;2.33;;
54171;SDS011;40076;52.354;4.970;2023-08-07T02:18:53;11.60;;;3.22;;
54171;SDS011;40076;52.354;4.970;2023-08-07T02:21:19;13.00;;;2.85;;
54171;SDS011;40076;52.354;4.970;2023-08-07T02:23:44;13.77;;;3.20;;
54171;SDS011;40076;52.354;4.970;2023-08-07T02:26:09;16.50;;;3.30;;
54171;SDS011;40076;52.354;4.970;2023-08-07T02:28:35;17.65;;;3.30;;
54171;SDS011;40076;52.354;4.970;2023-08-07T02:31:00;11.68;;;3.10;;
54171;SDS011;40076;52.354;4.970;2023-08-07T02:33:25;15.07;;;2.65;;
54171;SDS011;40076;52.354;4.970;2023-08-07T02:35:51;9.80;;;2.35;;
54171;SDS011;40076;52.354;4.970;2023-08-07T02:38:16;14.02;;;3.85;;
54171;SDS011;40076;52.354;4.970;2023-08-07T02:40:42;9.82;;;2.17;;
54171;SDS011;40076;52.354;4.970;2023-08-07T02:43:08;10.57;;;2.03;;
54171;SDS011;40076;52.354;4.970;2023-08-07T02:45:34;7.03;;;1.73;;
54171;SDS011;40076;52.354;4.970;2023-08-07T02:47:59;6.75;;;1.80;;
54171;SDS011;40076;52.354;4.970;2023-08-07T02:50:25;8.63;;;2.25;;
54171;SDS011;40076;52.354;4.970;2023-08-07T02:53:03;10.93;;;1.92;;
54171;SDS011;40076;52.354;4.970;2023-08-07T02:55:29;8.73;;;2.25;;
54171;SDS011;40076;52.354;4.970;2023-08-07T02:57:54;11.25;;;2.13;;
54171;SDS011;40076;52.354;4.970;2023-08-07T03:00:21;7.25;;;1.83;;
54171;SDS011;40076;52.354;4.970;2023-08-07T03:02:46;12.38;;;2.70;;
54171;SDS011;40076;52.354;4.970;2023-08-07T03:05:12;13.25;;;2.47;;
54171;SDS011;40076;52.354;4.970;2023-08-07T03:07:37;7.40;;;2.10;;
54171;SDS011;40076;52.354;4.970;2023-08-07T03:10:02;10.23;;;2.97;;
54171;SDS011;40076;52.354;4.970;2023-08-07T03:12:29;14.77;;;3.42;;
54171;SDS011;40076;52.354;4.970;2023-08-07T03:14:54;8.38;;;2.75;;
54171;SDS011;40076;52.354;4.970;2023-08-07T03:17:20;14.60;;;2.90;;
54171;SDS011;40076;52.354;4.970;2023-08-07T03:19:46;14.07;;;3.15;;
54171;SDS011;40076;52.354;4.970;2023-08-07T03:22:12;13.77;;;2.70;;
54171;SDS011;40076;52.354;4.970;2023-08-07T03:24:38;14.48;;;3.03;;
54171;SDS011;40076;52.354;4.970;2023-08-07T03:27:03;16.17;;;2.97;;
54171;SDS011;40076;52.354;4.970;2023-08-07T03:29:41;14.07;;;2.90;;
54171;SDS011;40076;52.354;4.970;2023-08-07T03:32:06;12.05;;;2.58;;
54171;SDS011;40076;52.354;4.970;2023-08-07T03:34:33;13.10;;;3.28;;
54171;SDS011;40076;52.354;4.970;2023-08-07T03:37:00;13.48;;;3.13;;
54171;SDS011;40076;52.354;4.970;2023-08-07T03:39:25;14.65;;;2.95;;
54171;SDS011;40076;52.354;4.970;2023-08-07T03:41:50;13.85;;;2.85;;
54171;SDS011;40076;52.354;4.970;2023-08-07T03:44:16;12.00;;;3.08;;
54171;SDS011;40076;52.354;4.970;2023-08-07T03:46:41;14.32;;;3.00;;
54171;SDS011;40076;52.354;4.970;2023-08-07T03:49:07;13.45;;;2.85;;
54171;SDS011;40076;52.354;4.970;2023-08-07T03:51:32;14.57;;;3.42;;
54171;SDS011;40076;52.354;4.970;2023-08-07T03:53:57;16.33;;;3.00;;
54171;SDS011;40076;52.354;4.970;2023-08-07T03:56:23;9.38;;;2.78;;
54171;SDS011;40076;52.354;4.970;2023-08-07T03:58:48;17.88;;;3.20;;
54171;SDS011;40076;52.354;4.970;2023-08-07T04:01:15;13.68;;;2.72;;
54171;SDS011;40076;52.354;4.970;2023-08-07T04:03:40;13.88;;;2.75;;
54171;SDS011;40076;52.354;4.970;2023-08-07T04:06:06;12.05;;;2.63;;
54171;SDS011;40076;52.354;4.970;2023-08-07T04:08:31;12.75;;;3.42;;
54171;SDS011;40076;52.354;4.970;2023-08-07T04:11:07;16.80;;;3.67;;
54171;SDS011;40076;52.354;4.970;2023-08-07T04:13:33;15.65;;;3.20;;
54171;SDS011;40076;52.354;4.970;2023-08-07T04:15:59;12.25;;;2.83;;
54171;SDS011;40076;52.354;4.970;2023-08-07T04:18:26;13.35;;;2.85;;
54171;SDS011;40076;52.354;4.970;2023-08-07T04:20:52;19.08;;;3.72;;
54171;SDS011;40076;52.354;4.970;2023-08-07T04:23:18;15.50;;;3.45;;
54171;SDS011;40076;52.354;4.970;2023-08-07T04:25:45;17.48;;;3.60;;
54171;SDS011;40076;52.354;4.970;2023-08-07T04:28:11;18.85;;;3.47;;
54171;SDS011;40076;52.354;4.970;2023-08-07T04:30:36;16.20;;;3.83;;
54171;SDS011;40076;52.354;4.970;2023-08-07T04:33:01;16.63;;;4.10;;
54171;SDS011;40076;52.354;4.970;2023-08-07T04:35:30;19.10;;;4.18;;
54171;SDS011;40076;52.354;4.970;2023-08-07T04:37:55;17.80;;;3.17;;
54171;SDS011;40076;52.354;4.970;2023-08-07T04:40:20;15.75;;;3.42;;
54171;SDS011;40076;52.354;4.970;2023-08-07T04:42:46;17.85;;;3.65;;
54171;SDS011;40076;52.354;4.970;2023-08-07T04:45:18;14.32;;;3.60;;
54171;SDS011;40076;52.354;4.970;2023-08-07T04:47:44;16.77;;;3.75;;
54171;SDS011;40076;52.354;4.970;2023-08-07T04:50:09;13.40;;;4.07;;
54171;SDS011;40076;52.354;4.970;2023-08-07T04:52:35;12.23;;;3.58;;
54171;SDS011;40076;52.354;4.970;2023-08-07T04:55:00;12.55;;;3.58;;
54171;SDS011;40076;52.354;4.970;2023-08-07T04:57:26;15.02;;;3.40;;
54171;SDS011;40076;52.354;4.970;2023-08-07T04:59:51;15.25;;;3.42;;
54171;SDS011;40076;52.354;4.970;2023-08-07T05:02:17;11.63;;;3.22;;
54171;SDS011;40076;52.354;4.970;2023-08-07T05:04:43;11.63;;;2.42;;
54171;SDS011;40076;52.354;4.970;2023-08-07T05:07:08;11.27;;;2.45;;
54171;SDS011;40076;52.354;4.970;2023-08-07T05:09:34;11.85;;;2.95;;
54171;SDS011;40076;52.354;4.970;2023-08-07T05:12:00;7.70;;;2.85;;
54171;SDS011;40076;52.354;4.970;2023-08-07T05:14:25;14.07;;;3.33;;
54171;SDS011;40076;52.354;4.970;2023-08-07T05:16:50;17.23;;;3.17;;
54171;SDS011;40076;52.354;4.970;2023-08-07T05:19:16;16.40;;;3.72;;
54171;SDS011;40076;52.354;4.970;2023-08-07T05:21:41;17.15;;;3.55;;
54171;SDS011;40076;52.354;4.970;2023-08-07T05:27:27;18.15;;;4.50;;
54171;SDS011;40076;52.354;4.970;2023-08-07T05:29:53;12.65;;;3.33;;
54171;SDS011;40076;52.354;4.970;2023-08-07T05:32:18;21.70;;;3.28;;
54171;SDS011;40076;52.354;4.970;2023-08-07T05:34:43;11.05;;;3.30;;
54171;SDS011;40076;52.354;4.970;2023-08-07T05:37:09;11.70;;;3.17;;
54171;SDS011;40076;52.354;4.970;2023-08-07T05:39:34;11.32;;;3.38;;
54171;SDS011;40076;52.354;4.970;2023-08-07T05:42:15;15.23;;;3.40;;
54171;SDS011;40076;52.354;4.970;2023-08-07T05:44:41;18.13;;;3.90;;
54171;SDS011;40076;52.354;4.970;2023-08-07T05:50:15;15.00;;;3.72;;
54171;SDS011;40076;52.354;4.970;2023-08-07T05:52:40;16.55;;;3.83;;
54171;SDS011;40076;52.354;4.970;2023-08-07T05:55:05;12.55;;;3.45;;
54171;SDS011;40076;52.354;4.970;2023-08-07T05:57:31;19.20;;;4.20;;
54171;SDS011;40076;52.354;4.970;2023-08-07T05:59:56;17.70;;;3.38;;
54171;SDS011;40076;52.354;4.970;2023-08-07T06:02:22;14.13;;;3.67;;
54171;SDS011;40076;52.354;4.970;2023-08-07T06:04:47;21.58;;;4.05;;
54171;SDS011;40076;52.354;4.970;2023-08-07T06:07:13;19.48;;;3.85;;
54171;SDS011;40076;52.354;4.970;2023-08-07T06:09:38;13.45;;;3.22;;
54171;SDS011;40076;52.354;4.970;2023-08-07T06:12:04;20.50;;;3.97;;
54171;SDS011;40076;52.354;4.970;2023-08-07T06:14:34;16.45;;;3.45;;
54171;SDS011;40076;52.354;4.970;2023-08-07T06:17:00;12.82;;;3.38;;
54171;SDS011;40076;52.354;4.970;2023-08-07T06:22:23;16.50;;;4.03;;
54171;SDS011;40076;52.354;4.970;2023-08-07T06:24:48;14.63;;;3.75;;
54171;SDS011;40076;52.354;4.970;2023-08-07T06:27:14;17.25;;;3.90;;
54171;SDS011;40076;52.354;4.970;2023-08-07T06:29:39;21.45;;;4.22;;
54171;SDS011;40076;52.354;4.970;2023-08-07T06:32:05;19.13;;;3.92;;
54171;SDS011;40076;52.354;4.970;2023-08-07T06:34:31;14.40;;;3.63;;
54171;SDS011;40076;52.354;4.970;2023-08-07T06:36:56;16.52;;;4.00;;
54171;SDS011;40076;52.354;4.970;2023-08-07T06:39:22;19.25;;;3.95;;
54171;SDS011;40076;52.354;4.970;2023-08-07T06:41:47;15.20;;;3.17;;
54171;SDS011;40076;52.354;4.970;2023-08-07T06:44:12;14.55;;;3.47;;
54171;SDS011;40076;52.354;4.970;2023-08-07T06:46:38;15.20;;;3.63;;
54171;SDS011;40076;52.354;4.970;2023-08-07T06:49:03;19.67;;;4.45;;
54171;SDS011;40076;52.354;4.970;2023-08-07T06:51:29;14.50;;;3.20;;
54171;SDS011;40076;52.354;4.970;2023-08-07T06:54:02;11.35;;;3.30;;
54171;SDS011;40076;52.354;4.970;2023-08-07T11:42:17;7.03;;;1.95;;
54171;SDS011;40076;52.354;4.970;2023-08-07T11:44:43;7.20;;;2.00;;
54171;SDS011;40076;52.354;4.970;2023-08-07T11:47:09;10.80;;;2.42;;
54171;SDS011;40076;52.354;4.970;2023-08-07T11:49:41;4.68;;;1.77;;
54171;SDS011;40076;52.354;4.970;2023-08-07T11:52:07;9.35;;;1.80;;
54171;SDS011;40076;52.354;4.970;2023-08-07T11:54:32;6.88;;;1.90;;
54171;SDS011;40076;52.354;4.970;2023-08-07T11:56:58;8.50;;;2.20;;
54171;SDS011;40076;52.354;4.970;2023-08-07T11:59:23;7.50;;;1.88;;
54171;SDS011;40076;52.354;4.970;2023-08-07T12:01:49;7.28;;;1.83;;
54171;SDS011;40076;52.354;4.970;2023-08-07T12:04:21;9.05;;;1.90;;
54171;SDS011;40076;52.354;4.970;2023-08-07T12:06:54;10.10;;;3.08;;
54171;SDS011;40076;52.354;4.970;2023-08-07T12:09:21;5.43;;;1.38;;
54171;SDS011;40076;52.354;4.970;2023-08-07T12:11:46;7.18;;;1.60;;
54171;SDS011;40076;52.354;4.970;2023-08-07T12:14:15;7.90;;;1.75;;
54171;SDS011;40076;52.354;4.970;2023-08-07T12:16:43;6.13;;;1.65;;
54171;SDS011;40076;52.354;4.970;2023-08-07T12:19:13;9.25;;;1.95;;
54171;SDS011;40076;52.354;4.970;2023-08-07T12:21:40;6.28;;;1.70;;
54171;SDS011;40076;52.354;4.970;2023-08-07T12:24:07;7.93;;;2.20;;
54171;SDS011;40076;52.354;4.970;2023-08-07T12:26:33;11.32;;;2.40;;
54171;SDS011;40076;52.354;4.970;2023-08-07T12:28:58;6.70;;;2.28;;
54171;SDS011;40076;52.354;4.970;2023-08-07T12:31:23;7.60;;;1.95;;
54171;SDS011;40076;52.354;4.970;2023-08-07T12:33:49;4.70;;;1.50;;
54171;SDS011;40076;52.354;4.970;2023-08-07T12:36:14;11.23;;;2.53;;
54171;SDS011;40076;52.354;4.970;2023-08-07T12:38:39;4.75;;;1.67;;
54171;SDS011;40076;52.354;4.970;2023-08-07T12:41:05;8.40;;;2.20;;
54171;SDS011;40076;52.354;4.970;2023-08-07T12:43:30;8.45;;;1.70;;
54171;SDS011;40076;52.354;4.970;2023-08-07T12:45:56;7.35;;;1.73;;
54171;SDS011;40076;52.354;4.970;2023-08-07T12:48:21;7.60;;;1.75;;
54171;SDS011;40076;52.354;4.970;2023-08-07T12:50:46;4.85;;;1.90;;
54171;SDS011;40076;52.354;4.970;2023-08-07T12:53:12;5.93;;;1.60;;
54171;SDS011;40076;52.354;4.970;2023-08-07T12:55:37;6.50;;;2.00;;
54171;SDS011;40076;52.354;4.970;2023-08-07T12:58:02;8.68;;;2.08;;
54171;SDS011;40076;52.354;4.970;2023-08-07T13:00:28;8.23;;;2.13;;
54171;SDS011;40076;52.354;4.970;2023-08-07T13:02:53;7.47;;;1.70;;
54171;SDS011;40076;52.354;4.970;2023-08-07T13:05:20;8.88;;;2.20;;
54171;SDS011;40076;52.354;4.970;2023-08-07T13:07:46;7.57;;;1.70;;
54171;SDS011;40076;52.354;4.970;2023-08-07T13:10:16;4.65;;;1.63;;
54171;SDS011;40076;52.354;4.970;2023-08-07T13:12:43;6.38;;;1.85;;
54171;SDS011;40076;52.354;4.970;2023-08-07T13:15:09;7.32;;;1.90;;
54171;SDS011;40076;52.354;4.970;2023-08-07T13:17:38;9.52;;;2.03;;
54171;SDS011;40076;52.354;4.970;2023-08-07T13:20:05;6.38;;;1.90;;
54171;SDS011;40076;52.354;4.970;2023-08-07T13:22:34;6.95;;;2.63;;
54171;SDS011;40076;52.354;4.970;2023-08-07T13:25:00;6.85;;;2.00;;
54171;SDS011;40076;52.354;4.970;2023-08-07T13:27:28;6.15;;;1.48;;
54171;SDS011;40076;52.354;4.970;2023-08-07T13:29:53;5.68;;;2.00;;
54171;SDS011;40076;52.354;4.970;2023-08-07T13:32:18;6.38;;;1.60;;
54171;SDS011;40076;52.354;4.970;2023-08-07T13:34:45;6.50;;;1.63;;
54171;SDS011;40076;52.354;4.970;2023-08-07T13:37:10;9.90;;;1.95;;
54171;SDS011;40076;52.354;4.970;2023-08-07T13:39:36;7.93;;;1.70;;
54171;SDS011;40076;52.354;4.970;2023-08-07T13:42:02;7.95;;;1.50;;
54171;SDS011;40076;52.354;4.970;2023-08-07T13:44:28;12.45;;;1.88;;
54171;SDS011;40076;52.354;4.970;2023-08-07T13:46:56;6.75;;;2.05;;
54171;SDS011;40076;52.354;4.970;2023-08-07T13:49:22;5.93;;;1.90;;
54171;SDS011;40076;52.354;4.970;2023-08-07T13:51:48;7.13;;;1.95;;
54171;SDS011;40076;52.354;4.970;2023-08-07T13:54:14;4.72;;;1.60;;
54171;SDS011;40076;52.354;4.970;2023-08-07T13:56:39;5.43;;;1.67;;
54171;SDS011;40076;52.354;4.970;2023-08-07T13:59:04;6.13;;;1.80;;
54171;SDS011;40076;52.354;4.970;2023-08-07T14:01:30;7.93;;;2.00;;
54171;SDS011;40076;52.354;4.970;2023-08-07T14:03:56;9.18;;;1.80;;
54171;SDS011;40076;52.354;4.970;2023-08-07T14:06:21;12.45;;;2.60;;
54171;SDS011;40076;52.354;4.970;2023-08-07T14:08:46;6.65;;;2.00;;
54171;SDS011;40076;52.354;4.970;2023-08-07T14:11:12;9.52;;;2.40;;
54171;SDS011;40076;52.354;4.970;2023-08-07T14:13:39;7.38;;;2.33;;
54171;SDS011;40076;52.354;4.970;2023-08-07T14:16:05;6.03;;;2.03;;
54171;SDS011;40076;52.354;4.970;2023-08-07T14:18:30;6.85;;;1.80;;
54171;SDS011;40076;52.354;4.970;2023-08-07T14:20:55;4.85;;;1.90;;
54171;SDS011;40076;52.354;4.970;2023-08-07T14:23:21;6.68;;;1.98;;
54171;SDS011;40076;52.354;4.970;2023-08-07T14:25:46;5.32;;;2.30;;
54171;SDS011;40076;52.354;4.970;2023-08-07T14:28:15;10.35;;;2.05;;
54171;SDS011;40076;52.354;4.970;2023-08-07T14:30:41;8.88;;;2.30;;
54171;SDS011;40076;52.354;4.970;2023-08-07T14:33:06;5.57;;;2.20;;
54171;SDS011;40076;52.354;4.970;2023-08-07T14:35:31;6.97;;;2.03;;
54171;SDS011;40076;52.354;4.970;2023-08-07T14:37:57;9.30;;;2.47;;
54171;SDS011;40076;52.354;4.970;2023-08-07T14:40:22;7.55;;;2.33;;
54171;SDS011;40076;52.354;4.970;2023-08-07T14:42:48;5.10;;;1.90;;
54171;SDS011;40076;52.354;4.970;2023-08-07T14:45:13;6.38;;;2.10;;
54171;SDS011;40076;52.354;4.970;2023-08-07T14:47:40;7.50;;;2.42;;
54171;SDS011;40076;52.354;4.970;2023-08-07T14:50:06;8.68;;;2.60;;
54171;SDS011;40076;52.354;4.970;2023-08-07T14:52:31;5.90;;;2.45;;
54171;SDS011;40076;52.354;4.970;2023-08-07T14:54:57;9.00;;;2.80;;
54171;SDS011;40076;52.354;4.970;2023-08-07T14:57:23;6.53;;;2.45;;
54171;SDS011;40076;52.354;4.970;2023-08-07T14:59:49;5.95;;;2.20;;
54171;SDS011;40076;52.354;4.970;2023-08-07T15:02:14;6.57;;;2.25;;
54171;SDS011;40076;52.354;4.970;2023-08-07T15:04:39;7.55;;;2.55;;
54171;SDS011;40076;52.354;4.970;2023-08-07T15:07:05;6.03;;;2.60;;
54171;SDS011;40076;52.354;4.970;2023-08-07T15:09:30;8.63;;;2.45;;
54171;SDS011;40076;52.354;4.970;2023-08-07T15:11:56;7.88;;;2.45;;
54171;SDS011;40076;52.354;4.970;2023-08-07T15:14:22;6.15;;;2.17;;
54171;SDS011;40076;52.354;4.970;2023-08-07T15:16:47;10.57;;;3.50;;
54171;SDS011;40076;52.354;4.970;2023-08-07T15:19:12;7.90;;;2.38;;
54171;SDS011;40076;52.354;4.970;2023-08-07T15:21:38;6.38;;;2.13;;
54171;SDS011;40076;52.354;4.970;2023-08-07T15:24:03;6.15;;;1.95;;
54171;SDS011;40076;52.354;4.970;2023-08-07T15:26:29;4.22;;;1.80;;
54171;SDS011;40076;52.354;4.970;2023-08-07T15:28:54;8.25;;;1.80;;
54171;SDS011;40076;52.354;4.970;2023-08-07T15:31:19;6.15;;;2.00;;
54171;SDS011;40076;52.354;4.970;2023-08-07T15:33:44;5.07;;;1.80;;
54171;SDS011;40076;52.354;4.970;2023-08-07T15:36:14;5.20;;;1.85;;
54171;SDS011;40076;52.354;4.970;2023-08-07T15:38:39;6.43;;;2.40;;
54171;SDS011;40076;52.354;4.970;2023-08-07T15:41:05;4.43;;;1.88;;
54171;SDS011;40076;52.354;4.970;2023-08-07T15:43:30;8.20;;;2.22;;
54171;SDS011;40076;52.354;4.970;2023-08-07T15:45:56;4.65;;;1.98;;
54171;SDS011;40076;52.354;4.970;2023-08-07T15:48:21;6.95;;;1.90;;
54171;SDS011;40076;52.354;4.970;2023-08-07T15:50:47;6.85;;;2.00;;
54171;SDS011;40076;52.354;4.970;2023-08-07T15:53:12;6.47;;;1.80;;
54171;SDS011;40076;52.354;4.970;2023-08-07T15:55:38;3.58;;;2.15;;
54171;SDS011;40076;52.354;4.970;2023-08-07T15:58:04;4.22;;;1.80;;
54171;SDS011;40076;52.354;4.970;2023-08-07T16:00:30;5.63;;;2.00;;
54171;SDS011;40076;52.354;4.970;2023-08-07T16:03:02;6.05;;;1.88;;
54171;SDS011;40076;52.354;4.970;2023-08-07T16:05:30;5.93;;;2.00;;
54171;SDS011;40076;52.354;4.970;2023-08-07T16:07:55;4.60;;;2.25;;
54171;SDS011;40076;52.354;4.970;2023-08-07T16:10:21;4.85;;;1.80;;
54171;SDS011;40076;52.354;4.970;2023-08-07T16:12:46;4.30;;;2.05;;
54171;SDS011;40076;52.354;4.970;2023-08-07T16:15:13;3.45;;;1.67;;
54171;SDS011;40076;52.354;4.970;2023-08-07T16:17:39;4.20;;;1.52;;
54171;SDS011;40076;52.354;4.970;2023-08-07T16:20:04;3.88;;;1.77;;
54171;SDS011;40076;52.354;4.970;2023-08-07T16:22:30;7.93;;;2.17;;
54171;SDS011;40076;52.354;4.970;2023-08-07T16:24:55;7.32;;;1.90;;
54171;SDS011;40076;52.354;4.970;2023-08-07T16:27:20;5.38;;;1.70;;
54171;SDS011;40076;52.354;4.970;2023-08-07T16:29:47;6.15;;;2.55;;
54171;SDS011;40076;52.354;4.970;2023-08-07T16:32:12;4.25;;;1.88;;
54171;SDS011;40076;52.354;4.970;2023-08-07T16:34:37;5.07;;;2.13;;
54171;SDS011;40076;52.354;4.970;2023-08-07T16:37:03;5.50;;;2.33;;
54171;SDS011;40076;52.354;4.970;2023-08-07T16:39:28;4.60;;;1.70;;
54171;SDS011;40076;52.354;4.970;2023-08-07T16:41:53;4.13;;;1.70;;
54171;SDS011;40076;52.354;4.970;2023-08-07T16:44:19;5.88;;;2.10;;
54171;SDS011;40076;52.354;4.970;2023-08-07T16:46:44;5.53;;;1.95;;
54171;SDS011;40076;52.354;4.970;2023-08-07T16:49:10;6.22;;;1.80;;
54171;SDS011;40076;52.354;4.970;2023-08-07T16:51:35;6.22;;;1.80;;
54171;SDS011;40076;52.354;4.970;2023-08-07T16:54:00;5.20;;;1.63;;
54171;SDS011;40076;52.354;4.970;2023-08-07T16:56:26;4.60;;;1.90;;
54171;SDS011;40076;52.354;4.970;2023-08-07T16:58:52;7.32;;;1.58;;
54171;SDS011;40076;52.354;4.970;2023-08-07T17:01:17;5.75;;;1.70;;
54171;SDS011;40076;52.354;4.970;2023-08-07T17:03:43;7.55;;;2.28;;
54171;SDS011;40076;52.354;4.970;2023-08-07T17:06:08;5.60;;;1.98;;
54171;SDS011;40076;52.354;4.970;2023-08-07T17:08:34;4.93;;;1.73;;
54171;SDS011;40076;52.354;4.970;2023-08-07T17:10:59;4.97;;;1.80;;
54171;SDS011;40076;52.354;4.970;2023-08-07T17:13:25;5.15;;;1.50;;
54171;SDS011;40076;52.354;4.970;2023-08-07T17:15:51;6.13;;;1.73;;
54171;SDS011;40076;52.354;4.970;2023-08-07T17:18:17;5.72;;;1.20;;
54171;SDS011;40076;52.354;4.970;2023-08-07T17:20:42;3.17;;;1.15;;
54171;SDS011;40076;52.354;4.970;2023-08-07T17:23:08;3.40;;;1.60;;
54171;SDS011;40076;52.354;4.970;2023-08-07T17:25:34;4.88;;;1.70;;
54171;SDS011;40076;52.354;4.970;2023-08-07T17:27:59;6.85;;;2.13;;
54171;SDS011;40076;52.354;4.970;2023-08-07T17:30:25;6.70;;;1.80;;
54171;SDS011;40076;52.354;4.970;2023-08-07T17:32:51;3.58;;;1.55;;
54171;SDS011;40076;52.354;4.970;2023-08-07T17:35:16;5.97;;;1.63;;
54171;SDS011;40076;52.354;4.970;2023-08-07T17:37:41;4.65;;;1.55;;
54171;SDS011;40076;52.354;4.970;2023-08-07T17:40:07;4.95;;;1.60;;
54171;SDS011;40076;52.354;4.970;2023-08-07T17:42:33;4.03;;;1.58;;
54171;SDS011;40076;52.354;4.970;2023-08-07T17:44:58;4.32;;;1.88;;
54171;SDS011;40076;52.354;4.970;2023-08-07T17:47:24;3.35;;;1.30;;
54171;SDS011;40076;52.354;4.970;2023-08-07T17:49:49;4.65;;;1.50;;
54171;SDS011;40076;52.354;4.970;2023-08-07T17:52:15;3.85;;;1.30;;
54171;SDS011;40076;52.354;4.970;2023-08-07T17:54:40;3.35;;;1.15;;
54171;SDS011;40076;52.354;4.970;2023-08-07T17:57:06;2.70;;;1.40;;
54171;SDS011;40076;52.354;4.970;2023-08-07T17:59:31;4.93;;;1.30;;
54171;SDS011;40076;52.354;4.970;2023-08-07T18:01:56;4.70;;;1.50;;
54171;SDS011;40076;52.354;4.970;2023-08-07T18:04:22;3.63;;;1.55;;
54171;SDS011;40076;52.354;4.970;2023-08-07T18:06:47;7.38;;;2.20;;
54171;SDS011;40076;52.354;4.970;2023-08-07T18:09:13;5.13;;;1.75;;
54171;SDS011;40076;52.354;4.970;2023-08-07T18:11:39;6.00;;;1.40;;
54171;SDS011;40076;52.354;4.970;2023-08-07T18:14:04;6.13;;;1.58;;
54171;SDS011;40076;52.354;4.970;2023-08-07T18:16:30;6.32;;;1.40;;
54171;SDS011;40076;52.354;4.970;2023-08-07T18:18:55;2.97;;;1.25;;
54171;SDS011;40076;52.354;4.970;2023-08-07T18:21:22;4.20;;;1.30;;
54171;SDS011;40076;52.354;4.970;2023-08-07T18:23:47;6.30;;;1.58;;
54171;SDS011;40076;52.354;4.970;2023-08-07T18:26:13;3.95;;;1.42;;
54171;SDS011;40076;52.354;4.970;2023-08-07T18:28:38;3.75;;;1.33;;
54171;SDS011;40076;52.354;4.970;2023-08-07T18:31:04;4.63;;;1.40;;
54171;SDS011;40076;52.354;4.970;2023-08-07T18:33:30;4.32;;;1.63;;
54171;SDS011;40076;52.354;4.970;2023-08-07T18:35:57;2.88;;;1.40;;
54171;SDS011;40076;52.354;4.970;2023-08-07T18:38:24;4.10;;;1.25;;
54171;SDS011;40076;52.354;4.970;2023-08-07T18:40:50;4.80;;;1.30;;
54171;SDS011;40076;52.354;4.970;2023-08-07T18:43:19;4.80;;;1.50;;
54171;SDS011;40076;52.354;4.970;2023-08-07T18:45:44;5.00;;;1.60;;
54171;SDS011;40076;52.354;4.970;2023-08-07T18:48:09;7.05;;;1.35;;
54171;SDS011;40076;52.354;4.970;2023-08-07T18:50:35;4.28;;;1.25;;
54171;SDS011;40076;52.354;4.970;2023-08-07T18:53:00;4.13;;;1.50;;
54171;SDS011;40076;52.354;4.970;2023-08-07T18:55:26;5.63;;;1.60;;
54171;SDS011;40076;52.354;4.970;2023-08-07T18:57:51;4.38;;;1.52;;
54171;SDS011;40076;52.354;4.970;2023-08-07T19:00:17;4.05;;;1.40;;
54171;SDS011;40076;52.354;4.970;2023-08-07T19:02:42;4.75;;;1.35;;
54171;SDS011;40076;52.354;4.970;2023-08-07T19:05:08;3.60;;;1.60;;
54171;SDS011;40076;52.354;4.970;2023-08-07T19:07:33;3.95;;;1.30;;
54171;SDS011;40076;52.354;4.970;2023-08-07T19:10:01;3.42;;;1.20;;
54171;SDS011;40076;52.354;4.970;2023-08-07T19:12:27;5.20;;;1.48;;
54171;SDS011;40076;52.354;4.970;2023-08-07T19:14:53;5.10;;;1.58;;
54171;SDS011;40076;52.354;4.970;2023-08-07T19:17:18;4.93;;;1.80;;
54171;SDS011;40076;52.354;4.970;2023-08-07T19:19:44;4.53;;;1.40;;
54171;SDS011;40076;52.354;4.970;2023-08-07T19:22:09;3.63;;;1.40;;
54171;SDS011;40076;52.354;4.970;2023-08-07T19:24:34;6.05;;;1.42;;
54171;SDS011;40076;52.354;4.970;2023-08-07T19:27:00;4.30;;;1.85;;
54171;SDS011;40076;52.354;4.970;2023-08-07T19:29:25;4.80;;;1.40;;
54171;SDS011;40076;52.354;4.970;2023-08-07T19:31:50;4.93;;;1.95;;
54171;SDS011;40076;52.354;4.970;2023-08-07T19:34:16;6.30;;;1.58;;
54171;SDS011;40076;52.354;4.970;2023-08-07T19:36:41;5.75;;;1.63;;
54171;SDS011;40076;52.354;4.970;2023-08-07T19:39:07;6.22;;;1.25;;
54171;SDS011;40076;52.354;4.970;2023-08-07T19:41:32;4.82;;;1.23;;